sensor_id;sensor_type;location;lat;lon;timestamp;temperature;humidity
22781;DHT22;11557;50.884;4.322;2023-09-19T00:00:37;17.30;99.90
22781;DHT22;11557;50.884;4.322;2023-09-19T00:03:03;17.20;99.90
22781;DHT22;11557;50.884;4.322;2023-09-19T00:05:33;17.30;99.90
22781;DHT22;11557;50.884;4.322;2023-09-19T00:08:00;17.40;99.90
22781;DHT22;11557;50.884;4.322;2023-09-19T00:10:27;17.30;99.90
22781;DHT22;11557;50.884;4.322;2023-09-19T00:12:57;17.30;99.90
22781;DHT22;11557;50.884;4.322;2023-09-19T00:15:25;17.20;99.90
22781;DHT22;11557;50.884;4.322;2023-09-19T00:17:54;17.50;99.90
22781;DHT22;11557;50.884;4.322;2023-09-19T00:20:20;17.30;99.90
22781;DHT22;11557;50.884;4.322;2023-09-19T00:22:49;17.20;99.90
22781;DHT22;11557;50.884;4.322;2023-09-19T00:25:17;17.30;99.90
22781;DHT22;11557;50.884;4.322;2023-09-19T00:27:43;17.30;99.90
22781;DHT22;11557;50.884;4.322;2023-09-19T00:30:11;17.30;99.90
22781;DHT22;11557;50.884;4.322;2023-09-19T00:32:41;17.20;99.90
22781;DHT22;11557;50.884;4.322;2023-09-19T00:35:08;17.30;99.90
22781;DHT22;11557;50.884;4.322;2023-09-19T00:37:35;17.30;99.90
22781;DHT22;11557;50.884;4.322;2023-09-19T00:40:02;17.20;99.90
22781;DHT22;11557;50.884;4.322;2023-09-19T00:42:28;17.30;99.90
22781;DHT22;11557;50.884;4.322;2023-09-19T00:44:54;17.30;99.90
22781;DHT22;11557;50.884;4.322;2023-09-19T00:47:20;17.50;99.90
22781;DHT22;11557;50.884;4.322;2023-09-19T00:49:45;17.50;99.90
22781;DHT22;11557;50.884;4.322;2023-09-19T00:52:18;17.40;99.90
22781;DHT22;11557;50.884;4.322;2023-09-19T00:54:47;17.50;99.90
22781;DHT22;11557;50.884;4.322;2023-09-19T00:57:14;17.50;99.90
22781;DHT22;11557;50.884;4.322;2023-09-19T00:59:45;17.40;99.90
22781;DHT22;11557;50.884;4.322;2023-09-19T01:02:14;17.40;99.90
22781;DHT22;11557;50.884;4.322;2023-09-19T01:04:40;17.50;99.90
22781;DHT22;11557;50.884;4.322;2023-09-19T01:07:06;17.30;99.90
22781;DHT22;11557;50.884;4.322;2023-09-19T01:09:34;17.40;99.90
22781;DHT22;11557;50.884;4.322;2023-09-19T01:12:02;17.30;99.90
22781;DHT22;11557;50.884;4.322;2023-09-19T01:14:48;17.30;99.90
22781;DHT22;11557;50.884;4.322;2023-09-19T01:17:29;17.30;99.90
22781;DHT22;11557;50.884;4.322;2023-09-19T01:20:15;17.30;99.90
22781;DHT22;11557;50.884;4.322;2023-09-19T01:25:59;17.30;99.90
22781;DHT22;11557;50.884;4.322;2023-09-19T01:31:21;17.20;99.90
22781;DHT22;11557;50.884;4.322;2023-09-19T01:34:02;17.30;99.90
22781;DHT22;11557;50.884;4.322;2023-09-19T01:36:32;17.30;99.90
22781;DHT22;11557;50.884;4.322;2023-09-19T01:39:02;17.30;99.90
22781;DHT22;11557;50.884;4.322;2023-09-19T01:41:56;17.40;99.90
22781;DHT22;11557;50.884;4.322;2023-09-19T01:47:13;17.40;99.90
22781;DHT22;11557;50.884;4.322;2023-09-19T01:52:59;17.20;99.90
22781;DHT22;11557;50.884;4.322;2023-09-19T01:55:30;17.30;99.90
22781;DHT22;11557;50.884;4.322;2023-09-19T01:58:07;17.30;99.90
22781;DHT22;11557;50.884;4.322;2023-09-19T02:00:36;17.30;99.90
22781;DHT22;11557;50.884;4.322;2023-09-19T02:03:03;17.20;99.90
22781;DHT22;11557;50.884;4.322;2023-09-19T02:05:29;17.30;99.90
22781;DHT22;11557;50.884;4.322;2023-09-19T02:07:56;17.30;99.90
22781;DHT22;11557;50.884;4.322;2023-09-19T02:10:22;17.20;99.90
22781;DHT22;11557;50.884;4.322;2023-09-19T02:12:50;17.30;99.90
22781;DHT22;11557;50.884;4.322;2023-09-19T02:15:16;17.30;99.90
22781;DHT22;11557;50.884;4.322;2023-09-19T02:17:43;17.30;99.90
22781;DHT22;11557;50.884;4.322;2023-09-19T02:20:10;17.30;99.90
22781;DHT22;11557;50.884;4.322;2023-09-19T02:22:40;17.30;99.90
22781;DHT22;11557;50.884;4.322;2023-09-19T02:25:06;17.30;99.90
22781;DHT22;11557;50.884;4.322;2023-09-19T02:27:33;17.20;99.90
22781;DHT22;11557;50.884;4.322;2023-09-19T02:29:58;17.20;99.90
22781;DHT22;11557;50.884;4.322;2023-09-19T02:32:24;17.30;99.90
22781;DHT22;11557;50.884;4.322;2023-09-19T02:34:50;17.30;99.90
22781;DHT22;11557;50.884;4.322;2023-09-19T02:37:17;17.20;99.90
22781;DHT22;11557;50.884;4.322;2023-09-19T02:39:44;17.10;99.90
22781;DHT22;11557;50.884;4.322;2023-09-19T02:42:10;17.10;99.90
22781;DHT22;11557;50.884;4.322;2023-09-19T02:44:35;17.10;99.90
22781;DHT22;11557;50.884;4.322;2023-09-19T02:47:01;17.10;99.90
22781;DHT22;11557;50.884;4.322;2023-09-19T02:49:26;17.10;99.90
22781;DHT22;11557;50.884;4.322;2023-09-19T02:51:52;17.10;99.90
22781;DHT22;11557;50.884;4.322;2023-09-19T02:54:18;17.10;99.90
22781;DHT22;11557;50.884;4.322;2023-09-19T02:56:44;17.00;99.90
22781;DHT22;11557;50.884;4.322;2023-09-19T02:59:10;17.00;99.90
22781;DHT22;11557;50.884;4.322;2023-09-19T03:01:36;16.90;99.90
22781;DHT22;11557;50.884;4.322;2023-09-19T03:04:04;16.80;99.90
22781;DHT22;11557;50.884;4.322;2023-09-19T03:06:33;16.70;99.90
22781;DHT22;11557;50.884;4.322;2023-09-19T03:08:59;16.80;99.90
22781;DHT22;11557;50.884;4.322;2023-09-19T03:11:25;16.70;99.90
22781;DHT22;11557;50.884;4.322;2023-09-19T03:13:53;16.80;99.90
22781;DHT22;11557;50.884;4.322;2023-09-19T03:16:19;16.80;99.90
22781;DHT22;11557;50.884;4.322;2023-09-19T03:18:48;16.80;99.90
22781;DHT22;11557;50.884;4.322;2023-09-19T03:21:15;16.80;99.90
22781;DHT22;11557;50.884;4.322;2023-09-19T03:23:40;16.60;99.90
22781;DHT22;11557;50.884;4.322;2023-09-19T03:26:06;16.70;99.90
22781;DHT22;11557;50.884;4.322;2023-09-19T03:28:34;16.70;99.90
22781;DHT22;11557;50.884;4.322;2023-09-19T03:31:03;16.70;99.90
22781;DHT22;11557;50.884;4.322;2023-09-19T03:33:29;16.70;99.90
22781;DHT22;11557;50.884;4.322;2023-09-19T03:35:58;16.60;99.90
22781;DHT22;11557;50.884;4.322;2023-09-19T03:38:25;16.60;99.90
22781;DHT22;11557;50.884;4.322;2023-09-19T03:40:51;16.40;99.90
22781;DHT22;11557;50.884;4.322;2023-09-19T03:43:16;16.50;99.90
22781;DHT22;11557;50.884;4.322;2023-09-19T03:45:43;16.70;99.90
22781;DHT22;11557;50.884;4.322;2023-09-19T03:48:11;16.60;99.90
22781;DHT22;11557;50.884;4.322;2023-09-19T03:50:37;16.70;99.90
22781;DHT22;11557;50.884;4.322;2023-09-19T03:53:03;16.70;99.90
22781;DHT22;11557;50.884;4.322;2023-09-19T03:55:29;16.70;99.90
22781;DHT22;11557;50.884;4.322;2023-09-19T03:57:57;16.70;99.90
22781;DHT22;11557;50.884;4.322;2023-09-19T04:00:23;16.70;99.90
22781;DHT22;11557;50.884;4.322;2023-09-19T04:02:52;16.80;99.90
22781;DHT22;11557;50.884;4.322;2023-09-19T04:05:18;16.90;99.90
22781;DHT22;11557;50.884;4.322;2023-09-19T04:07:44;16.70;99.90
22781;DHT22;11557;50.884;4.322;2023-09-19T04:10:10;16.70;99.90
22781;DHT22;11557;50.884;4.322;2023-09-19T04:12:37;16.70;99.90
22781;DHT22;11557;50.884;4.322;2023-09-19T04:15:06;16.70;99.90
22781;DHT22;11557;50.884;4.322;2023-09-19T04:17:32;16.70;99.90
22781;DHT22;11557;50.884;4.322;2023-09-19T04:20:01;16.80;99.90
22781;DHT22;11557;50.884;4.322;2023-09-19T04:22:26;16.70;99.90
22781;DHT22;11557;50.884;4.322;2023-09-19T04:24:52;16.80;99.90
22781;DHT22;11557;50.884;4.322;2023-09-19T04:27:17;16.80;99.90
22781;DHT22;11557;50.884;4.322;2023-09-19T04:29:44;16.70;99.90
22781;DHT22;11557;50.884;4.322;2023-09-19T04:32:10;16.70;99.90
22781;DHT22;11557;50.884;4.322;2023-09-19T04:34:36;16.60;99.90
22781;DHT22;11557;50.884;4.322;2023-09-19T04:37:04;16.70;99.90
22781;DHT22;11557;50.884;4.322;2023-09-19T04:39:29;16.70;99.90
22781;DHT22;11557;50.884;4.322;2023-09-19T04:41:55;16.70;99.90
22781;DHT22;11557;50.884;4.322;2023-09-19T04:44:21;16.60;99.90
22781;DHT22;11557;50.884;4.322;2023-09-19T04:46:47;16.60;99.90
22781;DHT22;11557;50.884;4.322;2023-09-19T04:49:12;16.60;99.90
22781;DHT22;11557;50.884;4.322;2023-09-19T04:51:39;16.50;99.90
22781;DHT22;11557;50.884;4.322;2023-09-19T04:54:05;16.40;99.90
22781;DHT22;11557;50.884;4.322;2023-09-19T04:56:32;16.50;99.90
22781;DHT22;11557;50.884;4.322;2023-09-19T04:58:58;16.50;99.90
22781;DHT22;11557;50.884;4.322;2023-09-19T05:01:24;16.50;99.90
22781;DHT22;11557;50.884;4.322;2023-09-19T05:03:50;16.60;99.90
22781;DHT22;11557;50.884;4.322;2023-09-19T05:06:19;16.60;99.90
22781;DHT22;11557;50.884;4.322;2023-09-19T05:08:48;16.60;99.90
22781;DHT22;11557;50.884;4.322;2023-09-19T05:11:17;16.60;99.90
22781;DHT22;11557;50.884;4.322;2023-09-19T05:13:43;16.60;99.90
22781;DHT22;11557;50.884;4.322;2023-09-19T05:16:08;16.60;99.90
22781;DHT22;11557;50.884;4.322;2023-09-19T05:18:35;16.50;99.90
22781;DHT22;11557;50.884;4.322;2023-09-19T05:21:04;16.50;99.90
22781;DHT22;11557;50.884;4.322;2023-09-19T05:23:30;16.60;99.90
22781;DHT22;11557;50.884;4.322;2023-09-19T05:25:56;16.50;99.90
22781;DHT22;11557;50.884;4.322;2023-09-19T05:28:23;16.50;99.90
22781;DHT22;11557;50.884;4.322;2023-09-19T05:30:49;16.40;99.90
22781;DHT22;11557;50.884;4.322;2023-09-19T05:33:15;16.30;99.90
22781;DHT22;11557;50.884;4.322;2023-09-19T05:35:41;16.20;99.90
22781;DHT22;11557;50.884;4.322;2023-09-19T05:38:07;16.20;99.90
22781;DHT22;11557;50.884;4.322;2023-09-19T05:40:37;16.30;99.90
22781;DHT22;11557;50.884;4.322;2023-09-19T05:43:04;16.30;99.90
22781;DHT22;11557;50.884;4.322;2023-09-19T05:45:31;16.20;99.90
22781;DHT22;11557;50.884;4.322;2023-09-19T05:48:09;16.20;99.90
22781;DHT22;11557;50.884;4.322;2023-09-19T05:50:36;16.10;99.90
22781;DHT22;11557;50.884;4.322;2023-09-19T05:53:02;16.20;99.90
22781;DHT22;11557;50.884;4.322;2023-09-19T05:55:29;16.10;99.90
22781;DHT22;11557;50.884;4.322;2023-09-19T05:57:55;16.10;99.90
22781;DHT22;11557;50.884;4.322;2023-09-19T06:00:22;16.10;99.90
22781;DHT22;11557;50.884;4.322;2023-09-19T06:02:55;16.20;99.90
22781;DHT22;11557;50.884;4.322;2023-09-19T06:05:24;16.20;99.90
22781;DHT22;11557;50.884;4.322;2023-09-19T06:07:52;16.20;99.90
22781;DHT22;11557;50.884;4.322;2023-09-19T06:10:18;16.40;99.90
22781;DHT22;11557;50.884;4.322;2023-09-19T06:12:46;16.40;99.90
22781;DHT22;11557;50.884;4.322;2023-09-19T06:15:15;16.30;99.90
22781;DHT22;11557;50.884;4.322;2023-09-19T06:17:43;16.40;99.90
22781;DHT22;11557;50.884;4.322;2023-09-19T06:20:11;16.40;99.90
22781;DHT22;11557;50.884;4.322;2023-09-19T06:22:45;16.40;99.90
22781;DHT22;11557;50.884;4.322;2023-09-19T06:25:12;16.40;99.90
22781;DHT22;11557;50.884;4.322;2023-09-19T06:27:41;16.50;99.90
22781;DHT22;11557;50.884;4.322;2023-09-19T06:30:09;16.40;99.90
22781;DHT22;11557;50.884;4.322;2023-09-19T06:32:35;16.40;99.90
22781;DHT22;11557;50.884;4.322;2023-09-19T06:35:01;16.50;99.90
22781;DHT22;11557;50.884;4.322;2023-09-19T06:37:28;16.50;99.90
22781;DHT22;11557;50.884;4.322;2023-09-19T06:39:54;16.70;99.90
22781;DHT22;11557;50.884;4.322;2023-09-19T06:42:20;16.80;99.90
22781;DHT22;11557;50.884;4.322;2023-09-19T06:44:48;16.60;99.90
22781;DHT22;11557;50.884;4.322;2023-09-19T06:47:14;16.60;99.90
22781;DHT22;11557;50.884;4.322;2023-09-19T06:49:41;16.80;99.90
22781;DHT22;11557;50.884;4.322;2023-09-19T06:52:09;16.80;99.90
22781;DHT22;11557;50.884;4.322;2023-09-19T06:54:35;16.80;99.90
22781;DHT22;11557;50.884;4.322;2023-09-19T06:57:01;16.90;99.90
22781;DHT22;11557;50.884;4.322;2023-09-19T06:59:27;16.80;99.90
22781;DHT22;11557;50.884;4.322;2023-09-19T07:01:53;16.80;99.90
22781;DHT22;11557;50.884;4.322;2023-09-19T07:04:18;16.90;99.90
22781;DHT22;11557;50.884;4.322;2023-09-19T07:06:50;16.80;99.90
22781;DHT22;11557;50.884;4.322;2023-09-19T07:09:17;16.80;99.90
22781;DHT22;11557;50.884;4.322;2023-09-19T07:11:45;16.80;99.90
22781;DHT22;11557;50.884;4.322;2023-09-19T07:14:10;16.90;99.90
22781;DHT22;11557;50.884;4.322;2023-09-19T07:16:38;16.80;99.90
22781;DHT22;11557;50.884;4.322;2023-09-19T07:19:05;16.80;99.90
22781;DHT22;11557;50.884;4.322;2023-09-19T07:21:32;16.70;99.90
22781;DHT22;11557;50.884;4.322;2023-09-19T07:24:01;16.80;99.90
22781;DHT22;11557;50.884;4.322;2023-09-19T07:26:28;16.70;99.90
22781;DHT22;11557;50.884;4.322;2023-09-19T07:28:54;16.90;99.90
22781;DHT22;11557;50.884;4.322;2023-09-19T07:31:20;17.00;99.90
22781;DHT22;11557;50.884;4.322;2023-09-19T07:33:48;17.10;99.90
22781;DHT22;11557;50.884;4.322;2023-09-19T07:36:16;17.00;99.90
22781;DHT22;11557;50.884;4.322;2023-09-19T07:38:42;17.10;99.90
22781;DHT22;11557;50.884;4.322;2023-09-19T07:41:08;17.10;99.90
22781;DHT22;11557;50.884;4.322;2023-09-19T07:43:35;17.20;99.90
22781;DHT22;11557;50.884;4.322;2023-09-19T07:46:08;17.30;99.90
22781;DHT22;11557;50.884;4.322;2023-09-19T07:48:37;17.10;99.90
22781;DHT22;11557;50.884;4.322;2023-09-19T07:51:08;17.00;99.90
22781;DHT22;11557;50.884;4.322;2023-09-19T07:53:35;17.20;99.90
22781;DHT22;11557;50.884;4.322;2023-09-19T07:56:08;17.10;99.90
22781;DHT22;11557;50.884;4.322;2023-09-19T07:58:35;17.20;99.90
22781;DHT22;11557;50.884;4.322;2023-09-19T08:01:06;17.10;99.90
22781;DHT22;11557;50.884;4.322;2023-09-19T08:03:33;17.20;99.90
22781;DHT22;11557;50.884;4.322;2023-09-19T08:06:02;17.20;99.90
22781;DHT22;11557;50.884;4.322;2023-09-19T08:08:28;17.20;99.90
22781;DHT22;11557;50.884;4.322;2023-09-19T08:10:58;17.30;99.90
22781;DHT22;11557;50.884;4.322;2023-09-19T08:13:24;17.20;99.90
22781;DHT22;11557;50.884;4.322;2023-09-19T08:15:50;17.20;99.90
22781;DHT22;11557;50.884;4.322;2023-09-19T08:18:16;17.30;99.90
22781;DHT22;11557;50.884;4.322;2023-09-19T08:20:43;17.30;99.90
22781;DHT22;11557;50.884;4.322;2023-09-19T08:23:11;17.30;99.90
22781;DHT22;11557;50.884;4.322;2023-09-19T08:25:37;17.50;99.90
22781;DHT22;11557;50.884;4.322;2023-09-19T08:28:04;17.50;99.90
22781;DHT22;11557;50.884;4.322;2023-09-19T08:30:34;17.70;99.90
22781;DHT22;11557;50.884;4.322;2023-09-19T08:33:00;17.70;99.90
22781;DHT22;11557;50.884;4.322;2023-09-19T08:35:29;17.50;99.90
22781;DHT22;11557;50.884;4.322;2023-09-19T08:37:55;17.60;99.90
22781;DHT22;11557;50.884;4.322;2023-09-19T08:40:21;17.70;99.90
22781;DHT22;11557;50.884;4.322;2023-09-19T08:42:51;17.80;99.90
22781;DHT22;11557;50.884;4.322;2023-09-19T08:45:17;17.80;99.90
22781;DHT22;11557;50.884;4.322;2023-09-19T08:47:50;17.90;99.90
22781;DHT22;11557;50.884;4.322;2023-09-19T08:50:28;18.00;99.90
22781;DHT22;11557;50.884;4.322;2023-09-19T08:52:55;18.20;99.90
22781;DHT22;11557;50.884;4.322;2023-09-19T08:55:27;18.30;99.90
22781;DHT22;11557;50.884;4.322;2023-09-19T08:58:03;18.50;99.90
22781;DHT22;11557;50.884;4.322;2023-09-19T09:00:32;18.60;99.90
22781;DHT22;11557;50.884;4.322;2023-09-19T09:03:01;19.10;99.90
22781;DHT22;11557;50.884;4.322;2023-09-19T09:05:28;19.80;99.90
22781;DHT22;11557;50.884;4.322;2023-09-19T09:07:55;20.00;99.90
22781;DHT22;11557;50.884;4.322;2023-09-19T09:10:22;20.30;99.90
22781;DHT22;11557;50.884;4.322;2023-09-19T09:12:52;20.40;99.90
22781;DHT22;11557;50.884;4.322;2023-09-19T09:15:22;20.40;99.90
22781;DHT22;11557;50.884;4.322;2023-09-19T09:17:49;20.60;99.90
22781;DHT22;11557;50.884;4.322;2023-09-19T09:20:18;20.50;99.90
22781;DHT22;11557;50.884;4.322;2023-09-19T09:22:55;20.60;99.90
22781;DHT22;11557;50.884;4.322;2023-09-19T09:25:22;20.90;99.90
22781;DHT22;11557;50.884;4.322;2023-09-19T09:28:02;20.70;99.90
22781;DHT22;11557;50.884;4.322;2023-09-19T09:30:35;20.20;99.90
22781;DHT22;11557;50.884;4.322;2023-09-19T09:33:12;20.00;99.90
22781;DHT22;11557;50.884;4.322;2023-09-19T09:35:51;20.00;99.90
22781;DHT22;11557;50.884;4.322;2023-09-19T09:38:23;19.90;99.90
22781;DHT22;11557;50.884;4.322;2023-09-19T09:40:54;19.90;99.90
22781;DHT22;11557;50.884;4.322;2023-09-19T09:43:28;20.00;99.90
22781;DHT22;11557;50.884;4.322;2023-09-19T09:48:45;19.70;99.90
22781;DHT22;11557;50.884;4.322;2023-09-19T09:51:29;19.50;99.90
22781;DHT22;11557;50.884;4.322;2023-09-19T09:54:10;19.40;99.90
22781;DHT22;11557;50.884;4.322;2023-09-19T09:56:58;19.20;99.90
22781;DHT22;11557;50.884;4.322;2023-09-19T09:59:53;19.30;99.90
22781;DHT22;11557;50.884;4.322;2023-09-19T10:02:29;19.40;99.90
22781;DHT22;11557;50.884;4.322;2023-09-19T10:04:59;19.60;99.90
22781;DHT22;11557;50.884;4.322;2023-09-19T10:07:35;19.80;99.90
22781;DHT22;11557;50.884;4.322;2023-09-19T10:10:07;20.10;99.90
22781;DHT22;11557;50.884;4.322;2023-09-19T10:12:45;20.10;99.90
22781;DHT22;11557;50.884;4.322;2023-09-19T10:15:12;20.30;99.90
22781;DHT22;11557;50.884;4.322;2023-09-19T10:17:44;20.80;99.90
22781;DHT22;11557;50.884;4.322;2023-09-19T10:20:13;21.30;99.90
22781;DHT22;11557;50.884;4.322;2023-09-19T10:22:59;21.30;99.90
22781;DHT22;11557;50.884;4.322;2023-09-19T10:25:26;21.40;99.90
22781;DHT22;11557;50.884;4.322;2023-09-19T10:27:54;21.40;99.90
22781;DHT22;11557;50.884;4.322;2023-09-19T10:30:22;21.70;99.90
22781;DHT22;11557;50.884;4.322;2023-09-19T10:33:01;21.80;99.90
22781;DHT22;11557;50.884;4.322;2023-09-19T10:35:27;21.70;99.90
22781;DHT22;11557;50.884;4.322;2023-09-19T10:37:57;21.70;99.90
22781;DHT22;11557;50.884;4.322;2023-09-19T10:40:23;21.60;99.90
22781;DHT22;11557;50.884;4.322;2023-09-19T10:43:03;21.60;99.90
22781;DHT22;11557;50.884;4.322;2023-09-19T10:45:34;21.70;99.90
22781;DHT22;11557;50.884;4.322;2023-09-19T10:48:03;21.80;99.90
22781;DHT22;11557;50.884;4.322;2023-09-19T10:53:43;21.90;99.90
22781;DHT22;11557;50.884;4.322;2023-09-19T10:56:17;21.90;99.90
22781;DHT22;11557;50.884;4.322;2023-09-19T10:58:43;21.70;99.90
22781;DHT22;11557;50.884;4.322;2023-09-19T11:01:11;21.70;99.90
22781;DHT22;11557;50.884;4.322;2023-09-19T11:03:38;21.80;99.90
22781;DHT22;11557;50.884;4.322;2023-09-19T11:06:18;21.60;99.90
22781;DHT22;11557;50.884;4.322;2023-09-19T11:30:53;21.40;99.90
22781;DHT22;11557;50.884;4.322;2023-09-19T11:33:24;21.20;99.90
22781;DHT22;11557;50.884;4.322;2023-09-19T11:49:26;20.70;99.90
22781;DHT22;11557;50.884;4.322;2023-09-19T11:51:55;20.70;99.90
22781;DHT22;11557;50.884;4.322;2023-09-19T11:54:21;20.70;99.90
22781;DHT22;11557;50.884;4.322;2023-09-19T11:56:51;20.70;99.90
22781;DHT22;11557;50.884;4.322;2023-09-19T11:59:23;20.80;99.90
22781;DHT22;11557;50.884;4.322;2023-09-19T12:01:58;20.70;99.90
22781;DHT22;11557;50.884;4.322;2023-09-19T12:04:39;20.60;99.90
22781;DHT22;11557;50.884;4.322;2023-09-19T12:07:11;20.40;99.90
22781;DHT22;11557;50.884;4.322;2023-09-19T12:09:44;20.50;99.90
22781;DHT22;11557;50.884;4.322;2023-09-19T12:14:48;20.60;99.90
22781;DHT22;11557;50.884;4.322;2023-09-19T12:17:14;20.80;99.90
22781;DHT22;11557;50.884;4.322;2023-09-19T12:19:49;20.80;99.90
22781;DHT22;11557;50.884;4.322;2023-09-19T12:22:15;20.80;99.90
22781;DHT22;11557;50.884;4.322;2023-09-19T12:24:43;20.70;99.90
22781;DHT22;11557;50.884;4.322;2023-09-19T12:27:10;20.80;99.90
22781;DHT22;11557;50.884;4.322;2023-09-19T12:29:57;20.80;99.90
22781;DHT22;11557;50.884;4.322;2023-09-19T12:32:37;20.80;99.90
22781;DHT22;11557;50.884;4.322;2023-09-19T12:35:06;20.80;99.90
22781;DHT22;11557;50.884;4.322;2023-09-19T12:37:45;20.80;99.90
22781;DHT22;11557;50.884;4.322;2023-09-19T12:40:13;20.70;99.90
22781;DHT22;11557;50.884;4.322;2023-09-19T12:42:48;20.80;99.90
22781;DHT22;11557;50.884;4.322;2023-09-19T12:45:15;20.90;99.90
22781;DHT22;11557;50.884;4.322;2023-09-19T12:48:17;21.00;99.90
22781;DHT22;11557;50.884;4.322;2023-09-19T12:51:02;21.10;99.90
22781;DHT22;11557;50.884;4.322;2023-09-19T12:53:36;21.10;99.90
22781;DHT22;11557;50.884;4.322;2023-09-19T12:56:06;21.00;99.90
22781;DHT22;11557;50.884;4.322;2023-09-19T12:58:34;21.00;99.90
22781;DHT22;11557;50.884;4.322;2023-09-19T13:01:00;21.00;99.90
22781;DHT22;11557;50.884;4.322;2023-09-19T13:03:30;21.00;99.90
22781;DHT22;11557;50.884;4.322;2023-09-19T13:06:03;21.00;99.90
22781;DHT22;11557;50.884;4.322;2023-09-19T13:08:30;21.00;99.90
22781;DHT22;11557;50.884;4.322;2023-09-19T13:11:14;21.00;99.90
22781;DHT22;11557;50.884;4.322;2023-09-19T13:13:47;20.90;99.90
22781;DHT22;11557;50.884;4.322;2023-09-19T13:16:15;20.80;99.90
22781;DHT22;11557;50.884;4.322;2023-09-19T13:18:55;20.90;99.90
22781;DHT22;11557;50.884;4.322;2023-09-19T13:21:29;20.80;99.90
22781;DHT22;11557;50.884;4.322;2023-09-19T13:24:19;20.90;99.90
22781;DHT22;11557;50.884;4.322;2023-09-19T13:26:44;20.80;99.90
22781;DHT22;11557;50.884;4.322;2023-09-19T13:29:11;20.90;99.90
22781;DHT22;11557;50.884;4.322;2023-09-19T13:31:37;21.00;99.90
22781;DHT22;11557;50.884;4.322;2023-09-19T13:34:07;21.10;99.90
22781;DHT22;11557;50.884;4.322;2023-09-19T13:36:33;21.20;99.90
22781;DHT22;11557;50.884;4.322;2023-09-19T13:38:59;21.30;99.90
22781;DHT22;11557;50.884;4.322;2023-09-19T13:41:25;21.40;99.90
22781;DHT22;11557;50.884;4.322;2023-09-19T13:43:51;21.30;99.90
22781;DHT22;11557;50.884;4.322;2023-09-19T13:46:18;21.30;99.90
22781;DHT22;11557;50.884;4.322;2023-09-19T13:48:51;21.20;99.90
22781;DHT22;11557;50.884;4.322;2023-09-19T13:51:20;21.10;99.90
22781;DHT22;11557;50.884;4.322;2023-09-19T13:53:48;21.00;99.90
22781;DHT22;11557;50.884;4.322;2023-09-19T13:56:16;21.00;99.90
22781;DHT22;11557;50.884;4.322;2023-09-19T13:58:41;21.00;99.90
22781;DHT22;11557;50.884;4.322;2023-09-19T14:01:07;21.00;99.90
22781;DHT22;11557;50.884;4.322;2023-09-19T14:03:41;20.80;99.90
22781;DHT22;11557;50.884;4.322;2023-09-19T14:06:15;20.70;99.90
22781;DHT22;11557;50.884;4.322;2023-09-19T14:08:41;20.60;99.90
22781;DHT22;11557;50.884;4.322;2023-09-19T14:11:08;20.60;99.90
22781;DHT22;11557;50.884;4.322;2023-09-19T14:13:34;20.70;99.90
22781;DHT22;11557;50.884;4.322;2023-09-19T14:16:06;20.80;99.90
22781;DHT22;11557;50.884;4.322;2023-09-19T14:18:34;20.70;99.90
22781;DHT22;11557;50.884;4.322;2023-09-19T14:21:06;20.80;99.90
22781;DHT22;11557;50.884;4.322;2023-09-19T14:23:37;21.00;99.90
22781;DHT22;11557;50.884;4.322;2023-09-19T14:26:04;21.00;99.90
22781;DHT22;11557;50.884;4.322;2023-09-19T14:28:31;21.10;99.90
22781;DHT22;11557;50.884;4.322;2023-09-19T14:31:04;21.10;99.90
22781;DHT22;11557;50.884;4.322;2023-09-19T14:33:30;21.00;99.90
22781;DHT22;11557;50.884;4.322;2023-09-19T14:35:56;21.00;99.90
22781;DHT22;11557;50.884;4.322;2023-09-19T14:38:22;21.10;99.90
22781;DHT22;11557;50.884;4.322;2023-09-19T14:40:48;21.10;99.90
22781;DHT22;11557;50.884;4.322;2023-09-19T14:43:15;21.10;99.90
22781;DHT22;11557;50.884;4.322;2023-09-19T14:45:41;21.20;99.90
22781;DHT22;11557;50.884;4.322;2023-09-19T14:48:07;21.20;99.90
22781;DHT22;11557;50.884;4.322;2023-09-19T14:50:33;21.00;99.90
22781;DHT22;11557;50.884;4.322;2023-09-19T14:52:58;20.90;99.90
22781;DHT22;11557;50.884;4.322;2023-09-19T14:55:27;20.70;99.90
22781;DHT22;11557;50.884;4.322;2023-09-19T14:57:55;20.40;99.90
22781;DHT22;11557;50.884;4.322;2023-09-19T15:00:22;20.40;99.90
22781;DHT22;11557;50.884;4.322;2023-09-19T15:02:49;20.30;99.90
22781;DHT22;11557;50.884;4.322;2023-09-19T15:05:16;20.40;99.90
22781;DHT22;11557;50.884;4.322;2023-09-19T15:07:42;20.40;99.90
22781;DHT22;11557;50.884;4.322;2023-09-19T15:10:08;20.30;99.90
22781;DHT22;11557;50.884;4.322;2023-09-19T15:12:36;20.30;99.90
22781;DHT22;11557;50.884;4.322;2023-09-19T15:15:04;20.40;99.90
22781;DHT22;11557;50.884;4.322;2023-09-19T15:17:33;20.20;99.90
22781;DHT22;11557;50.884;4.322;2023-09-19T15:19:59;20.30;99.90
22781;DHT22;11557;50.884;4.322;2023-09-19T15:22:25;20.30;99.90
22781;DHT22;11557;50.884;4.322;2023-09-19T15:24:52;20.40;99.90
22781;DHT22;11557;50.884;4.322;2023-09-19T15:27:17;20.40;99.90
22781;DHT22;11557;50.884;4.322;2023-09-19T15:29:46;20.40;99.90
22781;DHT22;11557;50.884;4.322;2023-09-19T15:32:11;20.40;99.90
22781;DHT22;11557;50.884;4.322;2023-09-19T15:34:37;20.20;99.90
22781;DHT22;11557;50.884;4.322;2023-09-19T15:37:03;20.10;99.90
22781;DHT22;11557;50.884;4.322;2023-09-19T15:39:32;20.20;99.90
22781;DHT22;11557;50.884;4.322;2023-09-19T15:41:59;20.20;99.90
22781;DHT22;11557;50.884;4.322;2023-09-19T15:44:26;20.10;99.90
22781;DHT22;11557;50.884;4.322;2023-09-19T15:46:54;20.10;99.90
22781;DHT22;11557;50.884;4.322;2023-09-19T15:49:20;20.10;99.90
22781;DHT22;11557;50.884;4.322;2023-09-19T15:51:46;20.10;99.90
22781;DHT22;11557;50.884;4.322;2023-09-19T15:54:15;20.10;99.90
22781;DHT22;11557;50.884;4.322;2023-09-19T15:56:45;20.10;99.90
22781;DHT22;11557;50.884;4.322;2023-09-19T15:59:12;20.10;99.90
22781;DHT22;11557;50.884;4.322;2023-09-19T16:01:38;20.10;99.90
22781;DHT22;11557;50.884;4.322;2023-09-19T16:04:06;20.10;99.90
22781;DHT22;11557;50.884;4.322;2023-09-19T16:06:34;20.10;99.90
22781;DHT22;11557;50.884;4.322;2023-09-19T16:09:00;20.20;99.90
22781;DHT22;11557;50.884;4.322;2023-09-19T16:11:29;20.20;99.90
22781;DHT22;11557;50.884;4.322;2023-09-19T16:13:56;20.20;99.90
22781;DHT22;11557;50.884;4.322;2023-09-19T16:16:22;20.20;99.90
22781;DHT22;11557;50.884;4.322;2023-09-19T16:18:56;20.30;99.90
22781;DHT22;11557;50.884;4.322;2023-09-19T16:21:23;20.20;99.90
22781;DHT22;11557;50.884;4.322;2023-09-19T16:23:50;20.10;99.90
22781;DHT22;11557;50.884;4.322;2023-09-19T16:26:17;20.00;99.90
22781;DHT22;11557;50.884;4.322;2023-09-19T16:28:50;20.00;99.90
22781;DHT22;11557;50.884;4.322;2023-09-19T16:31:16;20.00;99.90
22781;DHT22;11557;50.884;4.322;2023-09-19T16:33:47;20.00;99.90
22781;DHT22;11557;50.884;4.322;2023-09-19T16:36:15;19.90;99.90